Time;durP1;ratioP1;P1;durP2;ratioP2;P2;SDS_P1;SDS_P2;PMS_P1;PMS_P2;Temp;Humidity;BMP_temperature;BMP_pressure;BME280_temperature;BME280_humidity;BME280_pressure;Samples;Min_cycle;Max_cycle;Signal;HPM_P1;HPM_P2
2023/06/08 00:01:08;;;;;;;10.77;7.40;;;;;;;18.01;76.46;101079.72;5010734;28;20582;-79
2023/06/08 00:03:38;;;;;;;11.67;7.43;;;;;;;17.96;76.66;101075.72;5024167;28;20231;-80
2023/06/08 00:06:04;;;;;;;9.37;6.67;;;;;;;17.94;76.92;101083.06;5012580;28;20225;-80
2023/06/08 00:08:31;;;;;;;8.63;7.30;;;;;;;17.90;77.02;101077.13;5006818;28;20216;-80
2023/06/08 00:10:57;;;;;;;8.67;7.77;;;;;;;17.90;77.06;101074.44;5012012;28;20241;-79
2023/06/08 00:13:25;;;;;;;10.70;7.33;;;;;;;17.90;76.99;101073.56;5012915;28;20241;-79
2023/06/08 00:15:51;;;;;;;12.27;7.83;;;;;;;17.89;77.15;101072.72;5013526;28;20207;-79
2023/06/08 00:18:18;;;;;;;8.20;7.37;;;;;;;17.89;76.97;101074.56;5011274;28;20205;-78
2023/06/08 00:20:46;;;;;;;9.77;7.50;;;;;;;17.88;76.76;101080.94;5009594;28;20581;-79
2023/06/08 00:23:12;;;;;;;12.00;8.37;;;;;;;17.87;76.81;101081.91;5009585;28;20231;-79
2023/06/08 00:25:39;;;;;;;12.33;8.57;;;;;;;17.86;76.95;101077.53;5007915;28;20213;-79
2023/06/08 00:28:05;;;;;;;11.03;7.83;;;;;;;17.84;76.96;101085.72;5015203;28;20204;-79
2023/06/08 00:30:33;;;;;;;13.67;7.70;;;;;;;17.84;77.07;101074.09;5016490;28;20701;-79
2023/06/08 00:33:00;;;;;;;9.93;7.97;;;;;;;17.82;77.25;101074.22;5010233;28;20692;-78
2023/06/08 00:35:26;;;;;;;10.30;8.17;;;;;;;17.81;77.57;101074.38;5008752;28;20219;-79
2023/06/08 00:37:54;;;;;;;9.13;8.13;;;;;;;17.80;77.77;101070.81;5013028;28;20209;-79
2023/06/08 00:40:21;;;;;;;11.97;7.63;;;;;;;17.81;78.01;101068.97;5011976;28;20207;-79
2023/06/08 00:42:47;;;;;;;10.57;7.83;;;;;;;17.80;78.09;101073.50;5012553;28;20685;-79
2023/06/08 00:45:14;;;;;;;9.63;7.87;;;;;;;17.79;78.16;101077.19;5020459;28;20759;-79
2023/06/08 00:47:42;;;;;;;10.77;7.70;;;;;;;17.79;78.53;101066.41;5009967;28;20586;-78
2023/06/08 00:50:10;;;;;;;10.67;7.63;;;;;;;17.79;78.66;101069.09;5012302;28;20223;-79
2023/06/08 00:52:38;;;;;;;12.33;7.87;;;;;;;17.77;78.65;101063.00;5005930;28;20222;-79
2023/06/08 00:55:06;;;;;;;8.67;7.57;;;;;;;17.76;78.69;101061.28;5011892;28;20262;-78
2023/06/08 00:57:33;;;;;;;9.03;7.47;;;;;;;17.76;78.70;101068.50;5012390;28;20215;-79
2023/06/08 01:00:07;;;;;;;9.37;7.33;;;;;;;17.73;78.38;101072.34;5021391;28;20198;-78
2023/06/08 01:02:34;;;;;;;12.13;7.87;;;;;;;17.71;78.01;101057.31;5010085;28;20643;-79
2023/06/08 01:05:03;;;;;;;12.73;7.40;;;;;;;17.67;77.82;101051.31;5021111;28;20203;-78
2023/06/08 01:07:35;;;;;;;13.20;7.10;;;;;;;17.63;77.46;101052.53;5007951;28;20753;-78
2023/06/08 01:10:09;;;;;;;10.30;6.50;;;;;;;17.60;77.08;101052.78;5007509;28;20244;-79
2023/06/08 01:12:44;;;;;;;10.37;7.33;;;;;;;17.55;76.71;101055.91;5005934;28;20233;-78
2023/06/08 01:15:17;;;;;;;9.20;6.67;;;;;;;17.53;76.43;101047.09;5005796;28;20969;-79
2023/06/08 01:17:52;;;;;;;10.70;6.77;;;;;;;17.50;76.09;101052.75;5002679;28;20209;-79
2023/06/08 01:20:32;;;;;;;10.47;6.87;;;;;;;17.48;75.77;101052.03;5012041;28;20210;-78
2023/06/08 01:23:09;;;;;;;9.80;6.67;;;;;;;17.46;75.50;101054.00;5011889;28;20227;-78
2023/06/08 01:25:38;;;;;;;12.70;6.27;;;;;;;17.44;75.25;101055.09;5006742;28;20211;-79
2023/06/08 01:28:13;;;;;;;13.87;6.47;;;;;;;17.40;74.93;101046.44;5015035;28;20208;-79
2023/06/08 01:30:41;;;;;;;10.97;6.30;;;;;;;17.39;74.87;101057.31;5004834;28;20265;-79
2023/06/08 01:33:09;;;;;;;8.90;5.63;;;;;;;17.35;74.52;101051.38;5010840;28;20259;-80
2023/06/08 01:35:36;;;;;;;9.53;5.67;;;;;;;17.33;74.51;101053.34;5005985;28;20464;-79
2023/06/08 01:38:11;;;;;;;9.47;6.00;;;;;;;17.30;74.25;101059.84;5009617;28;20208;-79
2023/06/08 01:40:45;;;;;;;12.63;6.83;;;;;;;17.27;74.02;101054.69;5012225;28;20577;-79
2023/06/08 01:43:13;;;;;;;6.70;5.77;;;;;;;17.24;73.94;101051.41;5016400;28;20252;-79
2023/06/08 01:45:45;;;;;;;7.73;6.27;;;;;;;17.22;73.72;101062.31;5014275;28;20214;-79
2023/06/08 01:48:13;;;;;;;10.83;5.83;;;;;;;17.22;73.60;101051.53;5007768;28;20216;-79
2023/06/08 01:50:39;;;;;;;10.80;6.30;;;;;;;17.21;73.52;101049.81;5017216;28;20259;-79
2023/06/08 01:53:07;;;;;;;9.47;6.43;;;;;;;17.20;73.60;101044.56;5009896;28;20221;-79
2023/06/08 01:55:33;;;;;;;10.47;6.60;;;;;;;17.18;74.01;101027.72;5009182;28;20208;-80
2023/06/08 01:58:01;;;;;;;11.90;6.60;;;;;;;17.14;74.51;101023.59;5001252;28;20213;-80
2023/06/08 02:00:27;;;;;;;12.73;6.67;;;;;;;17.11;74.98;101026.53;5005138;28;20204;-80
2023/06/08 02:02:54;;;;;;;9.67;6.43;;;;;;;17.07;75.31;101030.47;5007504;28;20236;-80
2023/06/08 02:05:20;;;;;;;9.33;6.77;;;;;;;17.04;75.81;101025.31;5010778;28;20215;-80
2023/06/08 02:07:47;;;;;;;9.63;6.63;;;;;;;16.99;76.03;101028.44;5003793;28;20209;-80
2023/06/08 02:10:14;;;;;;;12.60;6.87;;;;;;;16.93;76.14;101037.00;5009591;28;20239;-80
2023/06/08 02:12:41;;;;;;;12.70;6.80;;;;;;;16.88;76.42;101028.47;5011201;28;20676;-80
2023/06/08 02:15:09;;;;;;;12.00;6.50;;;;;;;16.82;76.48;101021.78;5000104;28;20582;-80
2023/06/08 02:17:36;;;;;;;10.37;6.00;;;;;;;16.78;76.84;101024.84;5010502;28;20211;-80
2023/06/08 02:20:06;;;;;;;8.63;6.23;;;;;;;16.73;77.13;101021.66;5008677;28;20205;-80
2023/06/08 02:22:33;;;;;;;10.07;6.33;;;;;;;16.63;76.94;101017.06;5013065;28;20216;-80
2023/06/08 02:24:59;;;;;;;10.33;7.10;;;;;;;16.58;77.21;101007.63;5014135;28;20208;-80
2023/06/08 02:27:27;;;;;;;11.60;6.63;;;;;;;16.52;77.46;101008.97;5004370;28;20229;-80
2023/06/08 02:29:53;;;;;;;7.20;6.23;;;;;;;16.47;77.76;101000.47;5007909;28;20609;-80
2023/06/08 02:32:21;;;;;;;9.27;6.83;;;;;;;16.45;78.54;101005.09;5007046;28;20234;-79
2023/06/08 02:34:53;;;;;;;8.47;6.77;;;;;;;16.43;78.71;101003.53;5007044;28;20230;-80
2023/06/08 02:37:19;;;;;;;11.47;6.93;;;;;;;16.39;79.07;101010.13;5014576;28;20317;-80
2023/06/08 02:39:46;;;;;;;9.80;6.97;;;;;;;16.32;78.93;101007.06;5011098;28;20292;-80
2023/06/08 02:42:12;;;;;;;10.70;7.53;;;;;;;16.26;78.96;101007.59;5010873;28;20216;-81
2023/06/08 02:44:39;;;;;;;13.93;7.30;;;;;;;16.22;79.53;101011.50;5010996;28;20234;-81
2023/06/08 02:47:06;;;;;;;9.87;6.53;;;;;;;16.20;79.63;101021.53;5006090;28;20233;-81
2023/06/08 02:49:33;;;;;;;11.93;7.30;;;;;;;16.16;79.63;101025.44;5006161;28;20589;-81
2023/06/08 02:52:00;;;;;;;12.40;7.27;;;;;;;16.09;79.87;101011.66;5008841;28;20659;-82
2023/06/08 02:54:26;;;;;;;10.93;7.83;;;;;;;16.06;79.78;101022.63;5010238;28;20238;-81
2023/06/08 02:56:53;;;;;;;12.80;7.77;;;;;;;16.05;80.34;101031.66;5009985;28;20209;-81
2023/06/08 02:59:20;;;;;;;10.47;7.50;;;;;;;16.03;80.46;101039.00;5006956;28;20220;-82
2023/06/08 03:01:53;;;;;;;9.47;7.17;;;;;;;16.02;80.88;101025.69;5010654;28;20212;-81
2023/06/08 03:04:21;;;;;;;12.17;7.03;;;;;;;16.01;81.29;101035.56;5005204;28;20295;-81
2023/06/08 03:06:53;;;;;;;10.57;7.10;;;;;;;16.00;81.39;101036.56;5011823;28;20814;-81
2023/06/08 03:09:20;;;;;;;14.03;7.20;;;;;;;16.01;81.34;101040.94;5006595;28;20220;-81
2023/06/08 03:11:47;;;;;;;10.40;8.00;;;;;;;16.00;81.09;101035.69;5010251;28;20667;-81
2023/06/08 03:14:13;;;;;;;10.73;7.40;;;;;;;15.98;81.17;101036.66;5013623;28;20234;-82
2023/06/08 03:16:41;;;;;;;14.97;7.40;;;;;;;15.97;81.32;101040.34;4996903;28;20206;-81
2023/06/08 03:19:07;;;;;;;12.47;7.17;;;;;;;15.95;80.97;101039.59;5015715;28;20267;-81
2023/06/08 03:21:36;;;;;;;10.60;6.60;;;;;;;15.93;80.74;101033.53;5012621;28;20784;-81
2023/06/08 03:24:05;;;;;;;9.03;7.07;;;;;;;15.89;80.54;101037.41;5009115;28;20770;-81
2023/06/08 03:26:31;;;;;;;14.80;7.20;;;;;;;15.89;80.66;101036.56;5004000;28;20250;-81
2023/06/08 03:28:58;;;;;;;10.73;6.93;;;;;;;15.87;80.61;101030.47;5003840;28;20213;-81
2023/06/08 03:31:24;;;;;;;9.90;6.80;;;;;;;15.85;80.73;101040.47;5004636;28;20238;-81
2023/06/08 03:33:50;;;;;;;12.43;7.60;;;;;;;15.84;80.65;101036.06;5009255;28;20233;-81
2023/06/08 03:36:17;;;;;;;12.63;7.03;;;;;;;15.80;80.83;101032.75;5018609;28;20220;-81
2023/06/08 03:38:44;;;;;;;14.10;7.10;;;;;;;15.80;81.15;101038.13;5013324;28;20214;-81
2023/06/08 03:41:13;;;;;;;10.40;7.60;;;;;;;15.80;81.24;101037.28;5000389;28;20202;-81
2023/06/08 03:43:39;;;;;;;9.87;6.90;;;;;;;15.80;81.75;101038.13;5005924;28;20264;-81
2023/06/08 03:46:06;;;;;;;10.83;6.47;;;;;;;15.80;81.60;101043.50;5011255;28;20960;-81
2023/06/08 03:48:32;;;;;;;10.37;7.10;;;;;;;15.78;81.39;101039.22;5009829;28;20209;-81
2023/06/08 03:50:59;;;;;;;11.77;7.87;;;;;;;15.76;81.07;101038.53;5011421;28;20228;-81
2023/06/08 03:53:26;;;;;;;11.93;7.83;;;;;;;15.73;81.34;101042.28;5000879;28;20229;-81
2023/06/08 03:55:52;;;;;;;13.97;8.03;;;;;;;15.71;81.34;101038.88;5002284;28;20213;-81
2023/06/08 03:58:21;;;;;;;12.03;7.37;;;;;;;15.69;81.58;101045.34;5008176;28;20207;-81
2023/06/08 04:00:49;;;;;;;10.53;7.33;;;;;;;15.69;81.96;101045.34;5007974;28;20675;-81
2023/06/08 04:03:15;;;;;;;15.20;8.10;;;;;;;15.68;81.90;101049.84;5008417;28;20728;-81
2023/06/08 04:05:42;;;;;;;10.47;8.23;;;;;;;15.67;82.11;101056.19;5010933;28;20213;-81
2023/06/08 04:08:09;;;;;;;13.57;7.70;;;;;;;15.65;82.08;101050.09;5005438;28;20228;-81
2023/06/08 04:10:35;;;;;;;11.53;7.67;;;;;;;15.62;82.05;101039.56;5008839;28;20267;-81
2023/06/08 04:13:02;;;;;;;14.47;7.70;;;;;;;15.58;81.84;101043.50;5016096;28;20231;-81
2023/06/08 04:15:30;;;;;;;15.77;8.00;;;;;;;15.53;81.93;101057.25;5008817;28;20564;-81
2023/06/08 04:17:56;;;;;;;9.73;7.40;;;;;;;15.51;82.60;101047.59;5008675;28;20218;-81
2023/06/08 04:20:23;;;;;;;17.30;8.30;;;;;;;15.48;82.03;101051.38;5012333;28;20208;-81
2023/06/08 04:22:49;;;;;;;9.63;7.13;;;;;;;15.46;82.10;101056.00;5005893;28;20610;-81
2023/06/08 04:25:16;;;;;;;13.03;8.10;;;;;;;15.45;82.44;101058.78;5010829;28;20274;-81
2023/06/08 04:27:42;;;;;;;12.17;7.77;;;;;;;15.47;82.61;101059.53;5008300;28;20208;-81
2023/06/08 04:30:10;;;;;;;11.10;7.23;;;;;;;15.45;82.09;101043.53;5011005;28;20670;-81
2023/06/08 04:32:38;;;;;;;12.63;7.77;;;;;;;15.44;82.38;101051.72;5011255;28;20579;-81
2023/06/08 04:35:05;;;;;;;11.33;7.87;;;;;;;15.41;82.39;101047.44;5010024;28;20584;-81
2023/06/08 04:37:32;;;;;;;17.60;8.60;;;;;;;15.39;82.30;101056.59;5010226;28;20209;-81
2023/06/08 04:39:58;;;;;;;16.23;8.00;;;;;;;15.35;82.15;101052.44;5009448;28;20239;-81
2023/06/08 04:42:27;;;;;;;13.00;8.70;;;;;;;15.35;82.20;101055.13;5007568;28;20243;-81
2023/06/08 04:44:53;;;;;;;15.63;7.90;;;;;;;15.33;82.59;101052.56;5012112;28;20259;-80
2023/06/08 04:47:20;;;;;;;15.17;8.90;;;;;;;15.34;82.75;101056.09;5018711;28;20664;-81
2023/06/08 04:49:48;;;;;;;10.57;7.73;;;;;;;15.33;82.67;101055.22;5009402;28;20231;-80
2023/06/08 04:52:15;;;;;;;13.63;8.20;;;;;;;15.33;82.78;101057.91;5009901;28;20837;-81
2023/06/08 04:54:41;;;;;;;14.97;8.50;;;;;;;15.32;82.77;101052.66;5012319;28;20231;-81
2023/06/08 04:57:09;;;;;;;11.33;7.60;;;;;;;15.31;82.56;101048.28;5011702;28;20199;-81
2023/06/08 04:59:36;;;;;;;11.43;7.90;;;;;;;15.28;82.47;101052.03;5013819;28;20208;-82
2023/06/08 05:02:03;;;;;;;13.13;8.80;;;;;;;15.27;82.62;101056.53;5015750;28;20217;-81
2023/06/08 05:04:30;;;;;;;13.33;8.57;;;;;;;15.29;83.11;101054.59;5010521;28;20600;-81
2023/06/08 05:06:58;;;;;;;15.27;9.03;;;;;;;15.31;82.91;101059.00;5008752;28;20207;-81
2023/06/08 05:09:24;;;;;;;16.57;8.93;;;;;;;15.29;82.80;101054.59;5013075;28;20219;-81
2023/06/08 05:11:51;;;;;;;12.67;8.93;;;;;;;15.29;82.96;101054.59;5006492;28;20241;-82
2023/06/08 05:14:17;;;;;;;12.13;8.93;;;;;;;15.31;83.15;101053.63;5013795;28;20227;-82
2023/06/08 05:16:43;;;;;;;13.53;8.20;;;;;;;15.32;83.16;101066.09;5016799;28;20251;-81
2023/06/08 05:19:11;;;;;;;17.27;9.10;;;;;;;15.33;83.54;101057.06;5009710;28;20208;-81
2023/06/08 05:21:39;;;;;;;13.17;8.83;;;;;;;15.34;83.55;101066.81;5008399;28;20199;-80
2023/06/08 05:24:08;;;;;;;15.60;9.27;;;;;;;15.35;83.41;101047.94;5012979;28;20225;-81
2023/06/08 05:26:34;;;;;;;15.70;8.97;;;;;;;15.37;83.56;101051.34;5008619;28;20562;-81
2023/06/08 05:29:01;;;;;;;14.10;8.87;;;;;;;15.40;83.37;101048.44;5018170;28;20906;-83
2023/06/08 05:31:28;;;;;;;15.53;9.27;;;;;;;15.41;83.40;101047.44;5017869;28;20228;-83
2023/06/08 05:33:54;;;;;;;14.03;9.57;;;;;;;15.44;83.65;101047.19;5011558;28;20229;-82
2023/06/08 05:36:21;;;;;;;15.77;8.93;;;;;;;15.45;83.27;101045.38;5001918;28;20238;-83
2023/06/08 05:38:47;;;;;;;16.30;9.47;;;;;;;15.46;83.74;101044.41;5010773;28;20205;-82
2023/06/08 05:41:15;;;;;;;14.40;9.10;;;;;;;15.48;83.50;101048.69;5005860;28;20631;-82
2023/06/08 05:43:42;;;;;;;17.13;9.07;;;;;;;15.51;83.60;101043.06;5005700;28;20254;-81
2023/06/08 05:46:09;;;;;;;13.37;9.57;;;;;;;15.56;83.42;101050.81;5011437;28;20212;-83
2023/06/08 05:48:35;;;;;;;13.03;9.27;;;;;;;15.59;83.66;101043.34;5017631;28;20202;-82
2023/06/08 05:51:02;;;;;;;13.47;8.67;;;;;;;15.63;83.54;101046.66;5019174;28;20232;-82
2023/06/08 05:53:29;;;;;;;16.50;8.90;;;;;;;15.66;83.37;101046.44;5004098;28;20317;-82
2023/06/08 05:55:56;;;;;;;15.53;9.57;;;;;;;15.69;83.18;101045.34;5011643;28;20240;-82
2023/06/08 05:58:24;;;;;;;14.90;9.17;;;;;;;15.70;83.03;101034.47;5008420;28;20227;-82
2023/06/08 06:00:52;;;;;;;16.13;9.70;;;;;;;15.71;82.86;101043.38;5014685;28;20211;-83
2023/06/08 06:03:19;;;;;;;14.20;9.57;;;;;;;15.72;82.62;101040.59;5002020;28;20697;-82
2023/06/08 06:05:46;;;;;;;14.03;8.70;;;;;;;15.73;82.74;101041.44;5007741;28;20215;-82
2023/06/08 06:08:12;;;;;;;14.17;9.70;;;;;;;15.75;82.59;101040.34;5006016;28;20204;-83
2023/06/08 06:10:39;;;;;;;14.30;9.67;;;;;;;15.78;82.47;101056.19;5010483;28;20620;-82
2023/06/08 06:13:05;;;;;;;17.00;9.90;;;;;;;15.79;82.54;101055.22;5008938;28;20598;-82
2023/06/08 06:15:33;;;;;;;16.33;9.30;;;;;;;15.82;82.51;101056.81;5011924;28;20567;-82
2023/06/08 06:18:00;;;;;;;14.63;9.60;;;;;;;15.86;82.30;101058.28;4999613;28;20213;-82
2023/06/08 06:20:27;;;;;;;14.60;9.10;;;;;;;15.87;82.21;101054.63;5018328;28;20219;-82
2023/06/08 06:22:53;;;;;;;15.33;9.77;;;;;;;15.89;81.92;101053.53;5011746;28;20206;-82
2023/06/08 06:25:21;;;;;;;13.13;9.07;;;;;;;15.92;82.18;101047.94;5013435;28;20774;-82
2023/06/08 06:27:47;;;;;;;17.40;9.73;;;;;;;15.96;81.92;101053.88;5002843;28;20209;-82
2023/06/08 06:30:14;;;;;;;17.43;10.10;;;;;;;15.96;81.65;101060.13;5004011;28;20224;-83
2023/06/08 06:32:42;;;;;;;15.90;9.90;;;;;;;15.96;81.43;101053.88;5016766;28;20243;-82
2023/06/08 06:35:10;;;;;;;16.27;10.77;;;;;;;15.97;81.69;101067.19;5015877;28;20220;-82
2023/06/08 06:37:36;;;;;;;17.93;10.07;;;;;;;16.02;82.29;101057.94;5011213;28;20219;-82
2023/06/08 06:40:04;;;;;;;14.50;10.07;;;;;;;16.07;82.30;101061.09;5015483;28;20784;-83
2023/06/08 06:42:31;;;;;;;18.80;11.07;;;;;;;16.09;82.00;101059.16;5006112;28;20216;-82
2023/06/08 06:44:58;;;;;;;17.53;10.50;;;;;;;16.13;82.01;101061.44;5009549;28;20221;-82
2023/06/08 06:47:24;;;;;;;21.57;9.70;;;;;;;16.17;81.88;101065.59;5005222;28;20210;-82
2023/06/08 06:49:52;;;;;;;15.30;9.47;;;;;;;16.22;81.55;101067.94;5007133;28;20219;-81
2023/06/08 06:52:19;;;;;;;15.80;10.13;;;;;;;16.26;81.63;101062.19;5005230;28;20230;-83
2023/06/08 06:54:45;;;;;;;16.67;10.20;;;;;;;16.30;81.35;101068.19;5009052;28;20228;-82
2023/06/08 06:57:12;;;;;;;17.50;10.50;;;;;;;16.33;81.11;101059.84;5010214;28;20202;-82
2023/06/08 06:59:38;;;;;;;14.63;9.73;;;;;;;16.37;80.87;101068.53;5004933;28;20211;-82
2023/06/08 07:02:05;;;;;;;16.90;11.07;;;;;;;16.41;80.79;101070.84;5011416;28;20671;-82
2023/06/08 07:04:32;;;;;;;17.10;10.20;;;;;;;16.46;80.73;101065.13;5016394;28;20225;-83
2023/06/08 07:07:01;;;;;;;15.27;10.47;;;;;;;16.50;80.52;101066.53;5003129;28;20267;-83
2023/06/08 07:09:28;;;;;;;15.83;10.63;;;;;;;16.55;80.17;101069.72;5011600;28;20241;-82
2023/06/08 07:11:54;;;;;;;16.70;9.90;;;;;;;16.59;79.95;101068.50;5011460;28;20230;-83
2023/06/08 07:14:20;;;;;;;19.90;11.30;;;;;;;16.61;80.06;101072.78;5011556;28;20240;-82
2023/06/08 07:16:49;;;;;;;15.67;9.80;;;;;;;16.66;80.09;101078.66;5013461;28;20233;-82
2023/06/08 07:19:15;;;;;;;18.50;10.37;;;;;;;16.69;80.11;101076.69;5008887;28;20704;-82
2023/06/08 07:21:42;;;;;;;17.40;10.10;;;;;;;16.71;80.04;101072.91;5009457;28;20596;-83
2023/06/08 07:24:10;;;;;;;16.73;10.63;;;;;;;16.76;80.01;101069.84;5016340;28;20230;-83
2023/06/08 07:26:36;;;;;;;18.23;10.73;;;;;;;16.80;79.84;101074.00;5001015;28;20212;-82
2023/06/08 07:29:03;;;;;;;18.03;10.00;;;;;;;16.85;79.73;101077.97;5004289;28;20211;-82
2023/06/08 07:31:30;;;;;;;18.73;11.13;;;;;;;16.94;79.66;101082.63;5004644;28;20326;-82
2023/06/08 07:33:57;;;;;;;20.43;10.63;;;;;;;17.03;79.29;101083.66;5012288;28;20237;-82
2023/06/08 07:36:23;;;;;;;16.90;10.90;;;;;;;17.11;79.20;101074.97;5011563;28;20297;-82
2023/06/08 07:38:50;;;;;;;16.17;9.80;;;;;;;17.17;78.60;101086.09;5008028;28;20211;-82
2023/06/08 07:41:18;;;;;;;16.73;11.37;;;;;;;17.21;78.05;101070.50;5002213;28;20204;-82
2023/06/08 07:43:44;;;;;;;22.20;11.77;;;;;;;17.25;77.90;101063.88;5011340;28;20226;-82
2023/06/08 07:46:11;;;;;;;17.30;10.83;;;;;;;17.31;77.69;101058.84;5018670;28;20215;-82
2023/06/08 07:48:38;;;;;;;14.87;11.10;;;;;;;17.38;77.53;101077.19;5012744;28;20218;-82
2023/06/08 07:51:04;;;;;;;17.97;11.23;;;;;;;17.41;77.53;101083.13;5006138;28;20215;-80
2023/06/08 07:53:35;;;;;;;16.50;11.07;;;;;;;17.47;77.45;101079.06;5008039;28;20608;-82
2023/06/08 07:56:02;;;;;;;17.27;11.03;;;;;;;17.50;76.96;101071.59;5014021;28;20230;-82
2023/06/08 07:58:30;;;;;;;20.93;11.07;;;;;;;17.53;76.58;101084.81;5012418;28;20288;-82
2023/06/08 08:00:57;;;;;;;16.17;11.23;;;;;;;17.57;76.60;101082.69;5008837;28;20310;-82
2023/06/08 08:03:23;;;;;;;20.60;12.03;;;;;;;17.61;76.74;101062.59;5009999;28;20231;-82
2023/06/08 08:05:50;;;;;;;17.07;10.37;;;;;;;17.66;76.82;101069.31;5007847;28;20216;-82
2023/06/08 08:08:16;;;;;;;20.20;11.67;;;;;;;17.71;76.76;101071.63;5010063;28;20303;-82
2023/06/08 08:10:43;;;;;;;16.57;11.43;;;;;;;17.75;76.21;101070.34;5006857;28;20639;-82
2023/06/08 08:13:11;;;;;;;22.07;12.43;;;;;;;17.79;76.13;101058.31;5012598;28;20233;-83
2023/06/08 08:15:40;;;;;;;18.87;12.20;;;;;;;17.83;76.37;101051.69;5022267;28;20210;-83
2023/06/08 08:18:07;;;;;;;20.57;11.87;;;;;;;17.88;76.73;101054.00;5019615;28;20215;-82
2023/06/08 08:20:34;;;;;;;20.43;11.67;;;;;;;17.93;77.36;101052.56;5011404;28;20199;-83
2023/06/08 08:23:00;;;;;;;19.23;11.87;;;;;;;17.99;77.75;101048.50;5013270;28;20228;-82
2023/06/08 08:25:27;;;;;;;17.60;11.63;;;;;;;18.01;77.82;101043.84;5017607;28;20269;-82
2023/06/08 08:27:54;;;;;;;20.17;12.30;;;;;;;18.03;77.97;101042.72;5013465;28;20669;-82
2023/06/08 08:30:20;;;;;;;22.20;13.27;;;;;;;18.03;78.32;101039.16;5012957;28;20218;-82
2023/06/08 08:32:49;;;;;;;19.57;11.53;;;;;;;18.07;79.18;101054.09;5014221;28;20231;-82
2023/06/08 08:35:16;;;;;;;18.60;12.23;;;;;;;18.08;79.39;101061.19;5004467;28;20279;-83
2023/06/08 08:37:42;;;;;;;23.90;12.47;;;;;;;18.11;79.75;101068.13;5015401;28;20921;-83
2023/06/08 08:40:11;;;;;;;15.97;11.63;;;;;;;18.12;80.44;101057.19;5012095;28;20246;-82
2023/06/08 08:42:44;;;;;;;23.50;13.00;;;;;;;18.14;80.72;101063.31;5000830;28;20205;-82
2023/06/08 08:45:14;;;;;;;21.23;12.50;;;;;;;18.17;80.63;101068.44;5009246;28;20286;-82
2023/06/08 08:47:42;;;;;;;19.57;12.43;;;;;;;18.14;80.41;101067.84;5015001;28;20224;-82
2023/06/08 08:50:16;;;;;;;20.20;11.73;;;;;;;18.12;80.44;101075.22;5010219;28;20216;-83
2023/06/08 08:52:44;;;;;;;22.37;12.50;;;;;;;18.11;80.56;101081.59;5012410;28;20258;-83
2023/06/08 08:55:12;;;;;;;20.63;13.17;;;;;;;18.09;80.51;101079.06;5013657;28;20678;-82
2023/06/08 08:57:38;;;;;;;20.97;12.23;;;;;;;18.09;80.80;101072.81;5018433;28;20220;-83
2023/06/08 09:00:07;;;;;;;14.53;12.23;;;;;;;18.11;80.99;101060.03;5013010;28;20577;-83
2023/06/08 09:02:35;;;;;;;20.47;12.73;;;;;;;18.11;80.85;101058.19;5024344;28;20674;-84
2023/06/08 09:05:03;;;;;;;20.83;12.00;;;;;;;18.12;80.89;101059.03;5013843;28;20651;-83
2023/06/08 09:07:32;;;;;;;22.17;13.13;;;;;;;18.14;81.05;101065.16;5007337;28;20235;-82
2023/06/08 09:10:16;;;;;;;20.97;13.10;;;;;;;18.16;81.05;101073.97;5007119;28;20215;-83
2023/06/08 09:12:43;;;;;;;20.63;13.30;;;;;;;18.15;81.09;101074.94;5013254;28;20239;-83
2023/06/08 09:15:12;;;;;;;21.47;13.20;;;;;;;18.15;81.44;101072.25;5003613;28;20210;-83
2023/06/08 09:17:38;;;;;;;19.03;12.93;;;;;;;18.15;81.25;101070.41;5017937;28;20241;-82
2023/06/08 09:20:08;;;;;;;20.77;12.43;;;;;;;18.16;81.67;101073.97;5012779;28;20202;-82
2023/06/08 09:22:36;;;;;;;25.97;13.13;;;;;;;18.18;82.14;101077.38;5005409;28;20686;-82
2023/06/08 09:25:03;;;;;;;25.10;12.70;;;;;;;18.19;83.08;101081.78;5007273;28;20296;-83
2023/06/08 09:27:30;;;;;;;21.23;12.67;;;;;;;18.20;83.96;101073.56;5008614;28;20264;-82
2023/06/08 09:29:59;;;;;;;18.77;13.13;;;;;;;18.21;84.29;101079.81;5007147;28;20240;-82
2023/06/08 09:32:31;;;;;;;21.30;13.37;;;;;;;18.21;85.28;101074.41;5010833;28;20710;-82
2023/06/08 09:35:01;;;;;;;18.27;13.00;;;;;;;18.22;85.43;101063.50;5003221;28;20239;-83
2023/06/08 09:37:29;;;;;;;24.17;13.57;;;;;;;18.23;85.78;101070.59;5005039;28;20213;-82
2023/06/08 09:39:58;;;;;;;18.97;13.30;;;;;;;18.27;86.00;101065.81;5009144;28;20724;-82
2023/06/08 09:42:40;;;;;;;19.03;13.77;;;;;;;18.26;86.26;101072.19;5008795;28;20200;-82
2023/06/08 09:45:10;;;;;;;17.40;13.17;;;;;;;18.24;86.80;101077.72;5010739;28;20359;-82
2023/06/08 09:47:37;;;;;;;18.50;13.53;;;;;;;18.24;87.43;101076.84;5010502;28;20219;-82
2023/06/08 09:50:07;;;;;;;19.73;13.57;;;;;;;18.23;87.63;101081.38;5005862;28;20212;-83
2023/06/08 09:52:34;;;;;;;21.43;13.67;;;;;;;18.24;87.92;101082.25;5010834;28;20216;-83
2023/06/08 09:55:03;;;;;;;19.83;12.67;;;;;;;18.22;88.37;101079.69;5003758;28;20229;-82
2023/06/08 09:57:36;;;;;;;19.77;13.03;;;;;;;18.21;87.92;101077.97;5005338;28;20560;-82
2023/06/08 10:00:14;;;;;;;20.23;12.73;;;;;;;18.18;88.30;101072.00;4997377;28;20201;-82
2023/06/08 10:02:46;;;;;;;22.07;13.73;;;;;;;18.18;88.84;101069.28;5000633;28;20195;-82
2023/06/08 10:05:17;;;;;;;18.17;13.43;;;;;;;18.19;88.81;101057.53;5012214;28;20218;-82
2023/06/08 10:07:46;;;;;;;19.67;13.90;;;;;;;18.24;89.71;101066.06;5012263;28;20233;-82
2023/06/08 10:10:18;;;;;;;24.33;14.13;;;;;;;18.29;90.20;101070.03;5005497;28;20215;-83
2023/06/08 10:12:46;;;;;;;22.60;14.53;;;;;;;18.30;90.77;101066.34;5007152;28;20218;-83
2023/06/08 10:15:12;;;;;;;21.73;13.57;;;;;;;18.33;90.94;101063.38;5004688;28;20220;-82
2023/06/08 10:17:40;;;;;;;21.07;13.70;;;;;;;18.35;90.74;101071.34;5004241;28;20209;-82
2023/06/08 10:20:07;;;;;;;22.13;14.43;;;;;;;18.36;90.69;101067.66;4999257;28;20280;-82
2023/06/08 10:22:37;;;;;;;21.67;13.93;;;;;;;18.36;90.52;101059.56;5006682;28;20653;-82
2023/06/08 10:25:06;;;;;;;20.93;13.27;;;;;;;18.38;90.63;101058.44;5008382;28;20231;-82
2023/06/08 10:27:35;;;;;;;19.70;13.97;;;;;;;18.40;90.36;101047.53;5011510;28;20209;-83
2023/06/08 10:30:04;;;;;;;22.83;14.60;;;;;;;18.42;89.87;101047.38;5003661;28;20225;-83
2023/06/08 10:32:32;;;;;;;24.47;14.80;;;;;;;18.45;89.76;101037.16;5007624;28;20312;-82
2023/06/08 10:34:59;;;;;;;23.60;14.07;;;;;;;18.47;89.06;101040.56;5009200;28;20224;-83
2023/06/08 10:37:27;;;;;;;22.53;14.53;;;;;;;18.52;88.93;101045.56;5002655;28;20212;-82
2023/06/08 10:39:53;;;;;;;21.93;14.53;;;;;;;18.61;89.70;101042.94;5006789;28;20204;-83
2023/06/08 10:42:20;;;;;;;21.23;15.13;;;;;;;18.70;89.01;101039.38;5011506;28;20582;-83
2023/06/08 10:44:55;;;;;;;22.87;14.87;;;;;;;18.78;89.14;101033.28;5003971;28;20247;-83
2023/06/08 10:47:22;;;;;;;21.00;14.40;;;;;;;18.89;88.20;101032.28;5000739;28;20276;-83
2023/06/08 10:49:56;;;;;;;25.10;14.50;;;;;;;18.98;87.27;101040.41;5011258;28;20256;-83
2023/06/08 10:52:23;;;;;;;21.00;15.00;;;;;;;19.06;86.36;101036.97;5003327;28;20221;-83
2023/06/08 10:54:55;;;;;;;23.27;14.30;;;;;;;19.17;85.86;101036.00;5005547;28;20226;-83
2023/06/08 10:57:40;;;;;;;22.73;14.33;;;;;;;19.24;84.59;101034.41;4991889;28;20203;-83
2023/06/08 11:00:42;;;;;;;20.00;14.57;;;;;;;19.30;84.07;101028.44;5005638;28;20206;-84
2023/06/08 11:03:13;;;;;;;21.03;14.00;;;;;;;19.37;83.28;101035.81;5003872;28;20233;-83
2023/06/08 11:05:43;;;;;;;23.03;14.27;;;;;;;19.43;82.81;101029.84;5006088;28;20202;-83
2023/06/08 11:08:10;;;;;;;19.30;14.70;;;;;;;19.50;82.57;101023.91;5010597;28;20202;-82
2023/06/08 11:10:39;;;;;;;23.47;14.63;;;;;;;19.57;82.47;101025.00;5000198;28;20209;-82
2023/06/08 11:13:06;;;;;;;23.13;14.60;;;;;;;19.61;81.99;101021.88;5005554;28;20253;-82
2023/06/08 11:15:37;;;;;;;22.10;14.57;;;;;;;19.62;80.98;101020.03;5005849;28;20211;-83
2023/06/08 11:18:04;;;;;;;26.23;14.90;;;;;;;19.64;80.73;101021.59;5011757;28;20225;-83